createdAt,value
2023-03-10T00:01:34.943Z,98402.56
2023-03-10T00:04:04.296Z,98399.09
2023-03-10T00:06:35.449Z,98395.81
2023-03-10T00:09:05.540Z,98391.59
2023-03-10T00:11:34.649Z,98390.53
2023-03-10T00:14:03.265Z,98396.78
2023-03-10T00:16:32.734Z,98385.63
2023-03-10T00:19:01.228Z,98385.94
2023-03-10T00:21:31.507Z,98371.97
2023-03-10T00:24:00.495Z,98372.06
2023-03-10T00:26:30.404Z,98380.75
2023-03-10T00:28:59.869Z,98372.31
2023-03-10T00:31:31.615Z,98359.28
2023-03-10T00:34:01.712Z,98351.88
2023-03-10T00:36:32.125Z,98365.97
2023-03-10T00:39:03.523Z,98344.72
2023-03-10T00:41:34.127Z,98340.78
2023-03-10T00:44:04.458Z,98347.53
2023-03-10T00:46:34.641Z,98346.00
2023-03-10T00:49:04.464Z,98339.03
2023-03-10T00:51:36.975Z,98331.03
2023-03-10T00:54:05.339Z,98326.38
2023-03-10T00:56:33.735Z,98329.66
2023-03-10T00:59:02.617Z,98322.13
2023-03-10T01:01:32.985Z,98325.78
2023-03-10T01:04:03.435Z,98325.41
2023-03-10T01:06:35.356Z,98317.47
2023-03-10T01:09:05.180Z,98304.47
2023-03-10T01:11:34.684Z,98304.63
2023-03-10T01:14:06.923Z,98302.81
2023-03-10T01:16:35.657Z,98292.84
2023-03-10T01:19:04.237Z,98301.25
2023-03-10T01:21:36.481Z,98287.06
2023-03-10T01:24:06.938Z,98287.94
2023-03-10T01:26:35.501Z,98287.00
2023-03-10T01:29:03.894Z,98279.66
2023-03-10T01:31:32.774Z,98275.41
2023-03-10T01:34:04.274Z,98269.66
2023-03-10T01:36:34.217Z,98258.69
2023-03-10T01:39:02.364Z,98259.06
2023-03-10T01:41:31.067Z,98262.22
2023-03-10T01:43:59.918Z,98262.53
2023-03-10T01:46:51.095Z,98260.03
2023-03-10T01:49:37.628Z,98246.47
2023-03-10T01:52:12.058Z,98245.41
2023-03-10T01:54:49.552Z,98247.56
2023-03-10T01:57:23.349Z,98241.56
2023-03-10T02:00:00.775Z,98236.50
2023-03-10T02:02:37.725Z,98230.38
2023-03-10T02:05:07.505Z,98233.75
2023-03-10T02:07:41.224Z,98219.81
2023-03-10T02:10:12.052Z,98223.28
2023-03-10T02:12:40.471Z,98225.09
2023-03-10T02:15:09.999Z,98215.31
2023-03-10T02:17:40.109Z,98215.09
2023-03-10T02:20:24.409Z,98220.84
2023-03-10T02:22:55.036Z,98211.44
2023-03-10T02:25:32.735Z,98212.66
2023-03-10T02:28:02.963Z,98208.09
2023-03-10T02:30:35.224Z,98207.69
2023-03-10T02:33:07.676Z,98205.88
2023-03-10T02:35:35.957Z,98209.47
2023-03-10T02:38:09.297Z,98208.75
2023-03-10T02:40:40.807Z,98207.53
2023-03-10T02:43:23.674Z,98203.94
2023-03-10T02:45:59.999Z,98206.38
2023-03-10T02:48:32.521Z,98210.31
2023-03-10T02:51:04.158Z,98193.28
2023-03-10T02:53:33.284Z,98203.06
2023-03-10T02:56:01.988Z,98190.56
2023-03-10T02:58:36.193Z,98192.13
2023-03-10T03:01:08.235Z,98193.22
2023-03-10T03:03:40.929Z,98188.41
2023-03-10T03:06:10.762Z,98193.94
2023-03-10T03:08:39.346Z,98188.44
2023-03-10T03:11:11.578Z,98178.06
2023-03-10T03:13:41.640Z,98185.41
2023-03-10T03:16:11.300Z,98181.22
2023-03-10T03:18:40.848Z,98182.19
2023-03-10T03:21:15.833Z,98172.09
2023-03-10T03:23:46.348Z,98174.00
2023-03-10T03:26:20.048Z,98181.47
2023-03-10T03:28:52.142Z,98178.09
2023-03-10T03:31:26.433Z,98182.06
2023-03-10T03:34:04.811Z,98176.91
2023-03-10T03:36:34.005Z,98168.59
2023-03-10T03:39:02.372Z,98171.00
2023-03-10T03:41:33.252Z,98172.69
2023-03-10T03:44:03.592Z,98161.28
2023-03-10T03:46:34.379Z,98168.38
2023-03-10T03:49:03.301Z,98168.50
2023-03-10T03:51:33.073Z,98162.50
2023-03-10T03:54:02.580Z,98158.91
2023-03-10T03:56:35.529Z,98152.03
2023-03-10T03:59:05.807Z,98141.94
2023-03-10T04:01:34.653Z,98134.13
2023-03-10T04:04:06.044Z,98139.16
2023-03-10T04:06:34.680Z,98122.31
2023-03-10T04:09:05.561Z,98121.13
2023-03-10T04:11:35.569Z,98137.72
2023-03-10T04:14:06.052Z,98137.25
2023-03-10T04:16:35.529Z,98134.59
2023-03-10T04:19:07.618Z,98138.44
2023-03-10T04:21:38.060Z,98146.38
2023-03-10T04:24:08.186Z,98140.38
2023-03-10T04:26:38.338Z,98143.72
2023-03-10T04:29:09.096Z,98144.69
2023-03-10T04:31:41.993Z,98143.84
2023-03-10T04:34:11.968Z,98149.25
2023-03-10T04:36:42.549Z,98154.81
2023-03-10T04:39:11.468Z,98161.75
2023-03-10T04:41:40.625Z,98155.25
2023-03-10T04:44:24.450Z,98155.75
2023-03-10T04:46:59.168Z,98136.91
2023-03-10T04:49:27.936Z,98141.81
2023-03-10T04:51:56.583Z,98148.69
2023-03-10T04:54:25.426Z,98147.34
2023-03-10T04:56:53.698Z,98143.75
2023-03-10T04:59:24.754Z,98139.66
2023-03-10T05:01:53.764Z,98137.97
2023-03-10T05:04:24.304Z,98139.41
2023-03-10T05:06:55.127Z,98122.81
2023-03-10T05:09:29.659Z,98128.81
2023-03-10T05:11:58.375Z,98117.63
2023-03-10T05:14:30.783Z,98113.56
2023-03-10T05:16:59.858Z,98109.38
2023-03-10T05:19:29.552Z,98107.69
2023-03-10T05:22:00.330Z,98102.53
2023-03-10T05:24:30.382Z,98096.84
2023-03-10T05:26:58.894Z,98098.53
2023-03-10T05:29:27.316Z,98089.31
2023-03-10T05:32:02.451Z,98086.88
2023-03-10T05:34:39.155Z,98081.50
2023-03-10T05:37:07.877Z,98076.09
2023-03-10T05:39:36.479Z,98074.50
2023-03-10T05:42:10.680Z,98074.00
2023-03-10T05:44:41.212Z,98068.75
2023-03-10T05:47:13.737Z,98076.31
2023-03-10T05:49:41.953Z,98073.56
2023-03-10T05:52:10.919Z,98065.84
2023-03-10T05:54:41.205Z,98070.53
2023-03-10T05:57:12.860Z,98058.38
2023-03-10T05:59:43.145Z,98064.13
2023-03-10T06:02:13.738Z,98064.34
2023-03-10T06:04:41.988Z,98067.13
2023-03-10T06:07:11.291Z,98061.00
2023-03-10T06:09:40.079Z,98057.38
2023-03-10T06:12:08.797Z,98059.53
2023-03-10T06:14:40.384Z,98060.38
2023-03-10T06:17:08.809Z,98054.69
2023-03-10T06:19:39.827Z,98058.91
2023-03-10T06:22:09.031Z,98058.41
2023-03-10T06:24:37.637Z,98056.84
2023-03-10T06:27:06.992Z,98051.53
2023-03-10T06:29:36.358Z,98048.78
2023-03-10T06:32:05.896Z,98044.41
2023-03-10T06:34:34.392Z,98044.50
2023-03-10T06:37:03.991Z,98045.75
2023-03-10T06:39:32.274Z,98048.38
2023-03-10T06:42:01.987Z,98052.69
2023-03-10T06:44:30.283Z,98045.94
2023-03-10T06:46:58.969Z,98048.81
2023-03-10T06:49:30.444Z,98042.81
2023-03-10T06:51:58.945Z,98051.88
2023-03-10T06:54:30.232Z,98039.97
2023-03-10T06:56:58.560Z,98031.50
2023-03-10T06:59:27.168Z,98037.28
2023-03-10T07:01:55.426Z,98035.66
2023-03-10T07:04:25.183Z,98027.16
2023-03-10T07:06:53.774Z,98042.88
2023-03-10T07:09:22.645Z,98043.84
2023-03-10T07:11:52.491Z,98033.00
2023-03-10T07:14:20.630Z,98030.44
2023-03-10T07:16:49.313Z,98035.47
2023-03-10T07:19:17.860Z,98027.34
2023-03-10T07:21:47.739Z,98028.19
2023-03-10T07:24:16.818Z,98042.19
2023-03-10T07:26:45.165Z,98035.09
2023-03-10T07:29:14.522Z,98033.94
2023-03-10T07:31:45.645Z,98038.56
2023-03-10T07:34:13.829Z,98034.47
2023-03-10T07:36:41.989Z,98032.50
2023-03-10T07:39:10.640Z,98036.22
2023-03-10T07:41:39.714Z,98036.50
2023-03-10T07:44:08.021Z,98035.41
2023-03-10T07:46:37.904Z,98041.38
2023-03-10T07:49:06.658Z,98047.19
2023-03-10T07:51:35.568Z,98042.84
2023-03-10T07:54:04.022Z,98059.47
2023-03-10T07:56:32.242Z,98057.94
2023-03-10T07:59:01.135Z,98062.84
2023-03-10T08:01:29.425Z,98060.09
2023-03-10T08:04:02.719Z,98063.69
2023-03-10T08:06:33.045Z,98067.22
2023-03-10T08:09:01.629Z,98059.38
2023-03-10T08:11:30.208Z,98063.69
2023-03-10T08:14:01.477Z,98065.03
2023-03-10T08:16:30.967Z,98075.75
2023-03-10T08:19:00.855Z,98074.19
2023-03-10T08:21:29.221Z,98081.41
2023-03-10T08:23:57.874Z,98083.13
2023-03-10T08:26:26.209Z,98086.75
2023-03-10T08:28:57.264Z,98077.59
2023-03-10T08:31:26.341Z,98089.19
2023-03-10T08:33:56.882Z,98090.69
2023-03-10T08:36:29.306Z,98087.84
2023-03-10T08:38:59.707Z,98095.03
2023-03-10T08:41:30.087Z,98097.25
2023-03-10T08:44:00.018Z,98108.72
2023-03-10T08:46:30.532Z,98111.72
2023-03-10T08:48:59.499Z,98106.19
2023-03-10T08:51:31.325Z,98119.72
2023-03-10T08:53:59.869Z,98124.41
2023-03-10T08:56:29.470Z,98124.31
2023-03-10T08:58:59.349Z,98123.84
2023-03-10T09:02:04.725Z,98126.28
2023-03-10T09:04:37.355Z,98128.41
2023-03-10T09:07:07.272Z,98134.47
2023-03-10T09:09:35.615Z,98126.50
2023-03-10T09:12:04.903Z,98123.28
2023-03-10T09:14:33.650Z,98127.41
2023-03-10T09:17:01.969Z,98113.50
2023-03-10T09:19:30.221Z,98129.66
2023-03-10T09:21:59.709Z,98135.00
2023-03-10T09:24:29.730Z,98132.41
2023-03-10T09:26:58.021Z,98130.25
2023-03-10T09:29:42.259Z,98133.25
2023-03-10T09:32:14.949Z,98125.16
2023-03-10T09:34:46.949Z,98128.63
2023-03-10T09:37:15.511Z,98130.19
2023-03-10T09:39:45.324Z,98128.63
2023-03-10T09:42:37.763Z,98125.72
2023-03-10T09:45:31.380Z,98130.06
2023-03-10T09:48:14.428Z,98131.31
2023-03-10T09:50:46.482Z,98117.09
2023-03-10T09:53:49.709Z,98135.53
2023-03-10T09:56:31.463Z,98120.72
2023-03-10T09:59:05.514Z,98130.16
2023-03-10T10:01:35.612Z,98130.22
2023-03-10T10:04:23.595Z,98142.34
2023-03-10T10:06:52.007Z,98137.09
2023-03-10T10:09:34.886Z,98140.69
2023-03-10T10:12:12.776Z,98138.16
2023-03-10T10:14:48.068Z,98131.00
2023-03-10T10:17:39.208Z,98119.78
2023-03-10T10:20:18.307Z,98123.28
2023-03-10T10:22:46.943Z,98125.47
2023-03-10T10:25:21.556Z,98115.91
2023-03-10T10:27:56.039Z,98118.69
2023-03-10T10:30:51.173Z,98115.63
2023-03-10T10:33:20.060Z,98111.09
2023-03-10T10:36:02.170Z,98121.56
2023-03-10T10:38:31.896Z,98111.53
2023-03-10T10:41:01.628Z,98111.72
2023-03-10T10:43:44.928Z,98116.03
2023-03-10T10:46:15.151Z,98122.59
2023-03-10T10:49:04.146Z,98115.13
2023-03-10T10:51:36.013Z,98121.34
2023-03-10T10:54:19.318Z,98119.28
2023-03-10T10:56:55.235Z,98114.47
2023-03-10T10:59:29.668Z,98126.56
2023-03-10T11:01:59.952Z,98131.38
2023-03-10T11:04:30.373Z,98128.84
2023-03-10T11:07:22.019Z,98141.19
2023-03-10T11:10:30.172Z,98141.97
2023-03-10T11:13:07.520Z,98133.72
2023-03-10T11:15:40.901Z,98142.97
2023-03-10T11:18:18.031Z,98132.25
2023-03-10T11:20:52.636Z,98124.19
2023-03-10T11:23:26.881Z,98127.84
2023-03-10T11:27:02.074Z,98127.72
2023-03-10T11:30:11.090Z,98126.06
2023-03-10T11:33:02.611Z,98133.03
2023-03-10T11:35:37.619Z,98139.06
2023-03-10T11:38:21.594Z,98128.94
2023-03-10T11:40:57.548Z,98140.06
2023-03-10T11:43:35.026Z,98135.31
2023-03-10T11:46:10.211Z,98136.66
2023-03-10T11:48:53.325Z,98126.69
2023-03-10T11:51:29.801Z,98128.97
2023-03-10T11:54:01.026Z,98127.28
2023-03-10T11:56:29.838Z,98123.09
2023-03-10T11:59:01.937Z,98120.53
2023-03-10T12:01:35.300Z,98110.16
2023-03-10T12:04:14.259Z,98113.03
2023-03-10T12:06:48.626Z,98116.72
2023-03-10T12:09:32.551Z,98115.41
2023-03-10T12:12:03.224Z,98120.63
2023-03-10T12:14:33.654Z,98115.91
2023-03-10T12:17:03.282Z,98114.75
2023-03-10T12:19:32.881Z,98117.25
2023-03-10T12:22:46.765Z,98116.03
2023-03-10T12:25:43.346Z,98125.66
2023-03-10T12:28:28.578Z,98113.38
2023-03-10T12:30:58.597Z,98116.84
2023-03-10T12:33:50.089Z,98105.16
2023-03-10T12:36:37.744Z,98113.06
2023-03-10T12:39:45.970Z,98102.66
2023-03-10T12:42:35.073Z,98095.03
2023-03-10T12:45:18.951Z,98101.41
2023-03-10T12:47:55.728Z,98102.34
2023-03-10T12:51:06.861Z,98104.81
2023-03-10T12:53:48.068Z,98100.66
2023-03-10T12:56:23.833Z,98095.22
2023-03-10T12:58:58.870Z,98107.34
2023-03-10T13:01:36.698Z,98090.69
2023-03-10T13:04:07.932Z,98089.75
2023-03-10T13:06:39.684Z,98081.81
2023-03-10T13:09:24.344Z,98084.13
2023-03-10T13:11:57.178Z,98089.94
2023-03-10T13:14:35.949Z,98094.88
2023-03-10T13:17:04.511Z,98087.53
2023-03-10T13:19:40.378Z,98092.59
2023-03-10T13:22:42.055Z,98093.63
2023-03-10T13:25:16.080Z,98091.44
2023-03-10T13:27:44.408Z,98088.78
2023-03-10T13:30:17.221Z,98085.19
2023-03-10T13:32:54.515Z,98082.63
2023-03-10T13:35:26.851Z,98070.00
2023-03-10T13:38:05.770Z,98067.91
2023-03-10T13:40:35.695Z,98074.94
2023-03-10T13:43:05.436Z,98069.72
2023-03-10T13:45:35.486Z,98063.63
2023-03-10T13:48:06.307Z,98062.78
2023-03-10T13:50:36.646Z,98063.59
2023-03-10T13:53:05.336Z,98069.34
2023-03-10T13:55:41.818Z,98070.56
2023-03-10T13:58:14.646Z,98083.91
2023-03-10T14:00:50.341Z,98084.75
2023-03-10T14:03:19.052Z,98077.22
2023-03-10T14:05:51.335Z,98097.22
2023-03-10T14:08:24.300Z,98098.53
2023-03-10T14:10:55.454Z,98112.75
2023-03-10T14:13:41.104Z,98101.19
2023-03-10T14:16:15.957Z,98100.56
2023-03-10T14:18:51.861Z,98102.03
2023-03-10T14:21:25.165Z,98101.56
2023-03-10T14:23:56.814Z,98107.91
2023-03-10T14:26:28.077Z,98135.94
2023-03-10T14:28:56.774Z,98165.28
2023-03-10T14:31:26.871Z,98142.34
2023-03-10T14:33:56.956Z,98149.88
2023-03-10T14:36:57.172Z,98158.13
2023-03-10T14:39:49.477Z,98160.41
2023-03-10T14:42:42.485Z,98165.66
2023-03-10T14:45:22.447Z,98165.84
2023-03-10T14:47:51.102Z,98188.09
2023-03-10T14:50:22.969Z,98195.00
2023-03-10T14:52:51.736Z,98194.41
2023-03-10T14:55:20.934Z,98203.94
2023-03-10T14:57:57.862Z,98200.69
2023-03-10T15:00:26.679Z,98209.19
2023-03-10T15:02:55.312Z,98211.84
2023-03-10T15:05:31.922Z,98223.22
2023-03-10T15:08:08.445Z,98229.84
2023-03-10T15:10:39.186Z,98234.06
2023-03-10T15:13:37.762Z,98230.56
2023-03-10T15:17:30.672Z,98230.94
2023-03-10T15:23:29.101Z,98271.88
2023-03-10T15:25:58.348Z,98262.38
2023-03-10T15:28:27.866Z,98275.06
2023-03-10T15:30:59.295Z,98282.78
2023-03-10T15:33:28.170Z,98275.19
2023-03-10T15:35:56.605Z,98283.16
2023-03-10T15:38:25.126Z,98284.94
2023-03-10T15:40:54.905Z,98292.16
2023-03-10T15:43:23.894Z,98292.16
2023-03-10T15:45:53.764Z,98295.03
2023-03-10T15:48:23.577Z,98302.16
2023-03-10T15:50:52.373Z,98319.31
2023-03-10T15:53:20.967Z,98298.28
2023-03-10T15:55:52.356Z,98309.56
2023-03-10T15:58:21.120Z,98298.63
2023-03-10T16:00:50.940Z,98309.06
2023-03-10T16:03:19.767Z,98311.69
2023-03-10T16:05:49.765Z,98312.75
2023-03-10T16:08:19.240Z,98312.22
2023-03-10T16:10:54.435Z,98325.13
2023-03-10T16:13:23.838Z,98312.88
2023-03-10T16:15:53.519Z,98315.50
2023-03-10T16:18:22.453Z,98315.50
2023-03-10T16:21:00.975Z,98322.63
2023-03-10T16:23:31.287Z,98338.59
2023-03-10T16:26:07.076Z,98337.53
2023-03-10T16:28:35.937Z,98354.38
2023-03-10T16:31:06.350Z,98366.88
2023-03-10T16:33:37.396Z,98391.63
2023-03-10T16:36:11.707Z,98403.53
2023-03-10T16:38:41.202Z,98401.72
2023-03-10T16:41:11.868Z,98400.94
2023-03-10T16:43:40.549Z,98405.03
2023-03-10T16:46:12.425Z,98400.56
2023-03-10T16:48:43.032Z,98407.13
2023-03-10T16:51:23.843Z,98416.19
2023-03-10T16:53:53.084Z,98418.09
2023-03-10T16:56:23.038Z,98425.78
2023-03-10T16:58:52.213Z,98430.00
2023-03-10T17:01:23.961Z,98431.25
2023-03-10T17:03:52.926Z,98454.34
2023-03-10T17:06:25.057Z,98453.50
2023-03-10T17:08:54.346Z,98475.47
2023-03-10T17:11:25.021Z,98457.88
2023-03-10T17:13:54.799Z,98452.63
2023-03-10T17:16:28.228Z,98420.41
2023-03-10T17:18:58.093Z,98442.22
2023-03-10T17:21:30.188Z,98453.81
2023-03-10T17:23:58.708Z,98464.31
2023-03-10T17:26:26.857Z,98477.72
2023-03-10T17:28:55.060Z,98488.03
2023-03-10T17:31:27.353Z,98492.16
2023-03-10T17:33:57.784Z,98502.44
2023-03-10T17:36:26.741Z,98512.78
2023-03-10T17:38:58.583Z,98517.06
2023-03-10T17:41:28.541Z,98505.44
2023-03-10T17:43:56.641Z,98540.75
2023-03-10T17:46:27.903Z,98516.81
2023-03-10T17:49:00.343Z,98522.34
2023-03-10T17:51:30.663Z,98545.03
2023-03-10T17:54:01.928Z,98555.03
2023-03-10T17:56:30.395Z,98530.53
2023-03-10T17:59:00.100Z,98514.84
2023-03-10T18:01:30.712Z,98513.38
2023-03-10T18:04:01.239Z,98523.53
2023-03-10T18:06:33.792Z,98519.19
2023-03-10T18:09:06.781Z,98519.91
2023-03-10T18:11:38.338Z,98524.84
2023-03-10T18:14:07.445Z,98523.13
2023-03-10T18:16:37.729Z,98530.69
2023-03-10T18:19:08.223Z,98530.94
2023-03-10T18:21:38.450Z,98526.03
2023-03-10T18:24:08.822Z,98538.22
2023-03-10T18:26:38.066Z,98540.84
2023-03-10T18:29:06.601Z,98549.69
2023-03-10T18:31:35.768Z,98566.94
2023-03-10T18:34:05.350Z,98585.50
2023-03-10T18:36:36.607Z,98575.81
2023-03-10T18:39:07.243Z,98576.81
2023-03-10T18:41:37.208Z,98584.06
2023-03-10T18:44:05.996Z,98587.19
2023-03-10T18:46:34.894Z,98603.31
2023-03-10T18:49:07.201Z,98603.25
2023-03-10T18:51:35.387Z,98582.47
2023-03-10T18:54:05.884Z,98629.66
2023-03-10T18:56:36.892Z,98652.22
2023-03-10T18:59:05.629Z,98667.78
2023-03-10T19:01:34.348Z,98691.84
2023-03-10T19:04:03.338Z,98676.88
2023-03-10T19:06:32.417Z,98703.41
2023-03-10T19:09:01.598Z,98730.31
2023-03-10T19:11:35.382Z,98736.94
2023-03-10T19:14:08.276Z,98776.81
2023-03-10T19:16:36.553Z,98792.53
2023-03-10T19:19:05.964Z,98783.13
2023-03-10T19:21:36.270Z,98805.31
2023-03-10T19:24:04.835Z,98819.88
2023-03-10T19:26:33.563Z,98816.03
2023-03-10T19:29:02.086Z,98836.22
2023-03-10T19:31:32.062Z,98853.25
2023-03-10T19:34:00.461Z,98849.84
2023-03-10T19:36:29.548Z,98866.69
2023-03-10T19:38:58.136Z,98885.56
2023-03-10T19:41:27.542Z,98883.03
2023-03-10T19:44:08.698Z,98908.31
2023-03-10T19:46:38.275Z,98916.56
2023-03-10T19:49:06.929Z,98924.63
2023-03-10T19:51:36.989Z,98947.53
2023-03-10T19:54:05.656Z,98955.19
2023-03-10T19:56:34.073Z,98973.88
2023-03-10T19:59:02.719Z,99003.19
2023-03-10T20:01:31.745Z,99002.44
2023-03-10T20:04:06.051Z,98995.69
2023-03-10T20:06:34.151Z,98989.28
2023-03-10T20:09:03.815Z,98990.34
2023-03-10T20:11:31.965Z,98999.16
2023-03-10T20:14:00.623Z,99015.22
2023-03-10T20:16:29.355Z,99026.59
2023-03-10T20:19:16.771Z,99039.75
2023-03-10T20:21:45.855Z,99044.31
2023-03-10T20:24:14.541Z,99046.66
2023-03-10T20:26:43.125Z,99086.38
2023-03-10T20:29:11.793Z,99075.19
2023-03-10T20:31:39.948Z,99090.41
2023-03-10T20:34:08.753Z,99118.91
2023-03-10T20:36:40.023Z,99110.69
2023-03-10T20:39:09.818Z,99124.25
2023-03-10T20:41:38.720Z,99132.63
2023-03-10T20:44:13.926Z,99148.16
2023-03-10T20:46:43.293Z,99160.81
2023-03-10T20:49:12.762Z,99155.13
2023-03-10T20:51:42.621Z,99170.66
2023-03-10T20:54:10.724Z,99175.75
2023-03-10T20:56:39.254Z,99195.84
2023-03-10T20:59:08.779Z,99215.25
2023-03-10T21:01:39.780Z,99233.13
2023-03-10T21:04:08.052Z,99239.00
2023-03-10T21:06:37.388Z,99249.38
2023-03-10T21:09:07.242Z,99265.63
2023-03-10T21:11:35.964Z,99264.59
2023-03-10T21:14:04.862Z,99283.22
2023-03-10T21:16:34.526Z,99286.72
2023-03-10T21:19:06.551Z,99270.78
2023-03-10T21:21:35.546Z,99286.13
2023-03-10T21:24:05.705Z,99302.06
2023-03-10T21:26:35.928Z,99313.91
2023-03-10T21:29:06.576Z,99304.25
2023-03-10T21:31:35.950Z,99310.59
2023-03-10T21:34:04.642Z,99316.97
2023-03-10T21:36:33.133Z,99309.88
2023-03-10T21:39:02.864Z,99327.00
2023-03-10T21:41:31.365Z,99333.69
2023-03-10T21:44:00.939Z,99332.34
2023-03-10T21:46:29.391Z,99358.50
2023-03-10T21:49:11.922Z,99351.00
2023-03-10T21:51:40.391Z,99337.66
2023-03-10T21:54:08.945Z,99342.53
2023-03-10T21:56:37.106Z,99361.31
2023-03-10T21:59:07.546Z,99373.34
2023-03-10T22:01:37.250Z,99370.31
2023-03-10T22:04:05.806Z,99373.00
2023-03-10T22:06:34.609Z,99367.03
2023-03-10T22:09:04.697Z,99366.28
2023-03-10T22:11:33.599Z,99370.31
2023-03-10T22:14:01.882Z,99361.88
2023-03-10T22:16:31.588Z,99367.56
2023-03-10T22:19:05.043Z,99374.31
2023-03-10T22:21:33.250Z,99394.31
2023-03-10T22:24:03.165Z,99389.38
2023-03-10T22:26:34.007Z,99400.66
2023-03-10T22:29:02.971Z,99406.81
2023-03-10T22:31:32.737Z,99395.63
2023-03-10T22:34:00.964Z,99403.84
2023-03-10T22:36:29.269Z,99402.34
2023-03-10T22:39:00.384Z,99411.47
2023-03-10T22:41:29.307Z,99407.25
2023-03-10T22:43:57.902Z,99416.34
2023-03-10T22:46:27.204Z,99423.50
2023-03-10T22:49:22.148Z,99424.97
2023-03-10T22:51:50.428Z,99426.38
2023-03-10T22:54:28.479Z,99450.78
2023-03-10T22:57:06.524Z,99446.03
2023-03-10T22:59:37.730Z,99449.31
2023-03-10T23:02:06.223Z,99444.25
2023-03-10T23:04:39.362Z,99453.31
2023-03-10T23:07:29.759Z,99445.00
2023-03-10T23:13:24.157Z,99457.84
2023-03-10T23:16:02.795Z,99450.03
2023-03-10T23:18:43.557Z,99460.69
2023-03-10T23:21:28.120Z,99459.84
2023-03-10T23:24:10.784Z,99469.09
2023-03-10T23:26:56.906Z,99471.84
2023-03-10T23:29:34.598Z,99478.38
2023-03-10T23:32:28.457Z,99481.00
2023-03-10T23:35:27.442Z,99487.72
2023-03-10T23:38:05.945Z,99496.16
2023-03-10T23:40:38.352Z,99477.69
2023-03-10T23:43:08.117Z,99490.41
2023-03-10T23:45:45.721Z,99490.50
2023-03-10T23:48:29.674Z,99489.94
2023-03-10T23:50:58.050Z,99494.78
2023-03-10T23:53:28.716Z,99495.06
2023-03-10T23:56:33.688Z,99511.34
2023-03-10T23:59:11.116Z,99521.88
